createdAt,value
2023-03-03T00:00:17.671Z,9.80
2023-03-03T00:00:50.927Z,9.90
2023-03-03T00:01:26.268Z,9.93
2023-03-03T00:01:59.089Z,9.55
2023-03-03T00:02:35.113Z,10.20
2023-03-03T00:03:08.843Z,9.48
2023-03-03T00:03:44.413Z,8.95
2023-03-03T00:04:17.144Z,9.57
2023-03-03T00:04:49.986Z,9.48
2023-03-03T00:05:22.798Z,9.23
2023-03-03T00:06:02.611Z,9.48
2023-03-03T00:06:35.365Z,10.10
2023-03-03T00:07:08.184Z,9.70
2023-03-03T00:07:46.962Z,9.07
2023-03-03T00:08:20.143Z,9.90
2023-03-03T00:08:56.298Z,9.55
2023-03-03T00:09:29.078Z,9.50
2023-03-03T00:10:01.983Z,9.55
2023-03-03T00:10:34.780Z,9.43
2023-03-03T00:11:13.687Z,8.95
2023-03-03T00:11:48.761Z,9.30
2023-03-03T00:12:28.211Z,9.80
2023-03-03T00:13:01.093Z,9.63
2023-03-03T00:13:38.725Z,8.85
2023-03-03T00:14:30.062Z,9.30
2023-03-03T00:15:15.339Z,9.20
2023-03-03T00:15:51.686Z,8.75
2023-03-03T00:16:37.156Z,9.52
2023-03-03T00:17:24.100Z,9.15
2023-03-03T00:18:03.461Z,9.13
2023-03-03T00:18:37.264Z,9.23
2023-03-03T00:19:18.633Z,8.90
2023-03-03T00:19:51.726Z,8.63
2023-03-03T00:20:36.447Z,9.15
2023-03-03T00:21:32.088Z,8.88
2023-03-03T00:22:07.583Z,8.70
2023-03-03T00:22:53.743Z,8.63
2023-03-03T00:23:26.362Z,8.43
2023-03-03T00:24:13.892Z,9.45
2023-03-03T00:24:47.416Z,9.05
2023-03-03T00:25:26.073Z,8.70
2023-03-03T00:26:01.376Z,8.82
2023-03-03T00:26:38.226Z,8.68
2023-03-03T00:27:35.733Z,8.80
2023-03-03T00:28:28.523Z,8.85
2023-03-03T00:29:02.120Z,8.45
2023-03-03T00:29:36.729Z,8.98
2023-03-03T00:30:20.456Z,8.30
2023-03-03T00:31:02.324Z,9.15
2023-03-03T00:31:36.200Z,9.10
2023-03-03T00:32:21.275Z,7.95
2023-03-03T00:32:56.891Z,8.15
2023-03-03T00:33:32.593Z,8.80
2023-03-03T00:34:26.251Z,8.55
2023-03-03T00:35:18.757Z,8.57
2023-03-03T00:36:15.347Z,8.60
2023-03-03T00:36:48.645Z,8.43
2023-03-03T00:37:24.080Z,8.00
2023-03-03T00:38:02.236Z,8.18
2023-03-03T00:38:36.173Z,8.35
2023-03-03T00:39:38.137Z,8.43
2023-03-03T00:40:24.150Z,8.63
2023-03-03T00:40:56.844Z,8.23
2023-03-03T00:41:34.530Z,8.07
2023-03-03T00:42:16.350Z,8.50
2023-03-03T00:42:53.846Z,8.48
2023-03-03T00:43:31.938Z,8.55
2023-03-03T00:44:20.483Z,8.35
2023-03-03T00:44:56.753Z,8.50
2023-03-03T00:45:32.337Z,8.23
2023-03-03T00:46:10.094Z,8.07
2023-03-03T00:46:43.050Z,8.07
2023-03-03T00:47:31.961Z,8.45
2023-03-03T00:48:29.482Z,8.65
2023-03-03T00:49:02.273Z,8.35
2023-03-03T00:49:35.034Z,8.50
2023-03-03T00:50:07.710Z,8.23
2023-03-03T00:50:40.452Z,8.13
2023-03-03T00:51:35.806Z,8.13
2023-03-03T00:52:14.847Z,8.18
2023-03-03T00:53:21.984Z,8.10
2023-03-03T00:53:55.911Z,8.07
2023-03-03T00:54:28.689Z,8.70
2023-03-03T00:55:01.547Z,7.72
2023-03-03T00:55:34.583Z,8.07
2023-03-03T00:56:07.497Z,7.72
2023-03-03T00:56:40.283Z,7.90
2023-03-03T00:57:13.166Z,7.75
2023-03-03T00:57:45.929Z,7.85
2023-03-03T00:58:21.903Z,8.07
2023-03-03T00:58:54.694Z,8.00
2023-03-03T00:59:27.492Z,7.62
2023-03-03T01:00:06.889Z,7.32
2023-03-03T01:00:40.044Z,7.60
2023-03-03T01:01:12.949Z,7.97
2023-03-03T01:01:45.747Z,7.72
2023-03-03T01:02:18.499Z,7.72
2023-03-03T01:02:51.708Z,7.90
2023-03-03T01:03:25.169Z,7.95
2023-03-03T01:03:57.946Z,8.02
2023-03-03T01:04:30.698Z,7.85
2023-03-03T01:05:11.542Z,7.78
2023-03-03T01:05:44.422Z,7.75
2023-03-03T01:06:17.278Z,7.80
2023-03-03T01:06:50.080Z,7.70
2023-03-03T01:07:23.182Z,7.90
2023-03-03T01:07:55.937Z,8.02
2023-03-03T01:08:30.547Z,7.60
2023-03-03T01:09:05.893Z,8.20
2023-03-03T01:09:39.143Z,7.87
2023-03-03T01:10:14.337Z,8.20
2023-03-03T01:10:53.723Z,7.75
2023-03-03T01:11:28.662Z,7.72
2023-03-03T01:12:05.668Z,7.45
2023-03-03T01:12:38.825Z,7.80
2023-03-03T01:13:11.643Z,7.60
2023-03-03T01:13:45.646Z,7.95
2023-03-03T01:14:18.551Z,8.13
2023-03-03T01:14:53.143Z,7.65
2023-03-03T01:15:25.877Z,7.75
2023-03-03T01:15:59.531Z,7.60
2023-03-03T01:16:32.801Z,8.52
2023-03-03T01:17:05.580Z,8.30
2023-03-03T01:17:39.981Z,7.65
2023-03-03T01:18:12.764Z,7.80
2023-03-03T01:18:45.585Z,7.87
2023-03-03T01:19:18.373Z,8.20
2023-03-03T01:19:51.145Z,8.07
2023-03-03T01:20:23.982Z,7.40
2023-03-03T01:20:56.777Z,7.40
2023-03-03T01:21:29.547Z,7.85
2023-03-03T01:22:03.767Z,8.07
2023-03-03T01:22:36.596Z,7.95
2023-03-03T01:23:09.441Z,7.90
2023-03-03T01:23:42.276Z,8.02
2023-03-03T01:24:15.033Z,7.82
2023-03-03T01:24:51.079Z,8.18
2023-03-03T01:25:24.790Z,8.07
2023-03-03T01:25:57.567Z,8.05
2023-03-03T01:26:33.142Z,7.75
2023-03-03T01:27:05.916Z,8.63
2023-03-03T01:27:44.771Z,7.72
2023-03-03T01:28:22.597Z,7.90
2023-03-03T01:28:55.373Z,8.05
2023-03-03T01:29:31.031Z,7.30
2023-03-03T01:30:05.479Z,7.80
2023-03-03T01:30:39.315Z,8.20
2023-03-03T01:31:12.837Z,7.25
2023-03-03T01:31:45.583Z,7.32
2023-03-03T01:32:18.483Z,7.70
2023-03-03T01:32:51.269Z,7.80
2023-03-03T01:33:24.066Z,7.90
2023-03-03T01:33:57.388Z,7.47
2023-03-03T01:34:31.109Z,7.32
2023-03-03T01:35:06.188Z,8.05
2023-03-03T01:35:48.455Z,7.95
2023-03-03T01:36:26.783Z,7.37
2023-03-03T01:37:01.162Z,8.15
2023-03-03T01:37:36.241Z,7.65
2023-03-03T01:38:13.548Z,7.72
2023-03-03T01:38:46.425Z,7.55
2023-03-03T01:39:21.937Z,6.60
2023-03-03T01:39:54.824Z,7.70
2023-03-03T01:40:29.187Z,7.50
2023-03-03T01:41:02.082Z,7.45
2023-03-03T01:41:39.102Z,7.53
2023-03-03T01:42:11.842Z,7.75
2023-03-03T01:42:47.501Z,7.65
2023-03-03T01:43:20.378Z,7.75
2023-03-03T01:43:53.148Z,7.72
2023-03-03T01:44:26.531Z,7.20
2023-03-03T01:45:20.810Z,7.40
2023-03-03T01:46:00.095Z,7.43
2023-03-03T01:46:42.363Z,8.00
2023-03-03T01:47:21.514Z,7.43
2023-03-03T01:47:56.159Z,7.95
2023-03-03T01:48:33.142Z,7.30
2023-03-03T01:49:10.389Z,7.72
2023-03-03T01:49:49.569Z,7.80
2023-03-03T01:50:31.745Z,7.70
2023-03-03T01:51:07.475Z,7.80
2023-03-03T01:51:54.429Z,7.95
2023-03-03T01:52:49.921Z,7.53
2023-03-03T01:53:27.809Z,7.78
2023-03-03T01:54:05.605Z,8.25
2023-03-03T01:54:41.532Z,7.62
2023-03-03T01:55:20.649Z,7.55
2023-03-03T01:55:53.447Z,7.70
2023-03-03T01:56:27.202Z,7.65
2023-03-03T01:57:01.590Z,7.65
2023-03-03T01:57:37.161Z,7.62
2023-03-03T01:58:16.472Z,7.25
2023-03-03T01:59:03.964Z,7.82
2023-03-03T01:59:37.902Z,7.40
2023-03-03T02:00:16.527Z,7.55
2023-03-03T02:00:51.280Z,8.00
2023-03-03T02:01:10.307Z,7.50
2023-03-03T02:01:43.981Z,7.50
2023-03-03T02:02:17.721Z,7.40
2023-03-03T02:02:52.355Z,7.28
2023-03-03T02:03:34.836Z,7.25
2023-03-03T02:04:07.927Z,7.53
2023-03-03T02:04:40.742Z,7.82
2023-03-03T02:05:13.970Z,7.70
2023-03-03T02:05:46.752Z,8.02
2023-03-03T02:06:34.086Z,7.78
2023-03-03T02:07:10.864Z,8.00
2023-03-03T02:07:24.052Z,7.80
2023-03-03T02:07:37.026Z,8.18
2023-03-03T02:07:49.856Z,7.85
2023-03-03T02:08:02.730Z,7.57
2023-03-03T02:08:16.836Z,7.82
2023-03-03T02:08:35.540Z,7.97
2023-03-03T02:08:54.374Z,7.85
2023-03-03T02:09:27.857Z,7.78
2023-03-03T02:09:52.503Z,7.93
2023-03-03T02:10:07.351Z,7.70
2023-03-03T02:10:20.402Z,7.93
2023-03-03T02:10:33.275Z,7.82
2023-03-03T02:10:46.450Z,7.47
2023-03-03T02:10:59.442Z,6.97
2023-03-03T02:11:12.342Z,7.00
2023-03-03T02:11:25.184Z,7.47
2023-03-03T02:11:38.159Z,7.47
2023-03-03T02:11:52.689Z,7.45
2023-03-03T02:12:08.260Z,7.43
2023-03-03T02:12:22.889Z,7.47
2023-03-03T02:12:42.518Z,7.40
2023-03-03T02:12:56.699Z,7.30
2023-03-03T02:13:09.643Z,7.15
2023-03-03T02:13:22.574Z,7.30
2023-03-03T02:13:35.411Z,7.00
2023-03-03T02:13:48.541Z,6.82
2023-03-03T02:14:01.406Z,7.22
2023-03-03T02:14:14.340Z,7.12
2023-03-03T02:14:27.825Z,7.55
2023-03-03T02:14:40.773Z,7.60
2023-03-03T02:14:53.637Z,7.15
2023-03-03T02:15:20.242Z,7.18
2023-03-03T02:15:37.296Z,7.35
2023-03-03T02:15:50.443Z,7.12
2023-03-03T02:16:03.654Z,7.43
2023-03-03T02:16:16.561Z,7.55
2023-03-03T02:16:29.570Z,7.55
2023-03-03T02:16:42.520Z,7.62
2023-03-03T02:16:55.366Z,7.65
2023-03-03T02:17:08.410Z,7.57
2023-03-03T02:17:21.296Z,7.50
2023-03-03T02:17:34.156Z,7.57
2023-03-03T02:17:47.554Z,7.68
2023-03-03T02:18:03.121Z,7.43
2023-03-03T02:18:17.380Z,6.93
2023-03-03T02:18:30.305Z,7.12
2023-03-03T02:18:43.226Z,7.10
2023-03-03T02:18:56.204Z,7.00
2023-03-03T02:19:22.110Z,7.25
2023-03-03T02:19:52.758Z,7.35
2023-03-03T02:20:17.669Z,7.80
2023-03-03T02:20:39.771Z,7.40
2023-03-03T02:21:12.522Z,7.22
2023-03-03T02:21:28.545Z,7.60
2023-03-03T02:21:41.474Z,7.55
2023-03-03T02:21:54.329Z,7.55
2023-03-03T02:22:07.198Z,7.40
2023-03-03T02:22:24.041Z,7.45
2023-03-03T02:22:53.186Z,7.53
2023-03-03T02:23:27.456Z,7.68
2023-03-03T02:23:52.539Z,7.62
2023-03-03T02:24:45.401Z,7.80
2023-03-03T02:25:00.604Z,7.53
2023-03-03T02:25:16.302Z,7.60
2023-03-03T02:25:37.534Z,7.80
2023-03-03T02:25:58.638Z,7.30
2023-03-03T02:26:31.393Z,7.78
2023-03-03T02:26:44.934Z,7.53
2023-03-03T02:26:57.987Z,7.80
2023-03-03T02:27:11.291Z,8.07
2023-03-03T02:27:24.186Z,7.93
2023-03-03T02:27:37.133Z,7.80
2023-03-03T02:27:50.081Z,7.60
2023-03-03T02:28:03.047Z,7.22
2023-03-03T02:28:15.991Z,7.20
2023-03-03T02:28:30.508Z,7.20
2023-03-03T02:28:43.536Z,7.60
2023-03-03T02:28:56.476Z,7.68
2023-03-03T02:29:10.144Z,7.30
2023-03-03T02:29:23.052Z,7.22
2023-03-03T02:29:35.981Z,7.28
2023-03-03T02:29:49.006Z,7.50
2023-03-03T02:30:16.034Z,7.53
2023-03-03T02:30:29.064Z,7.50
2023-03-03T02:30:41.956Z,7.62
2023-03-03T02:30:58.346Z,7.60
2023-03-03T02:31:14.409Z,7.90
2023-03-03T02:31:28.763Z,7.70
2023-03-03T02:31:41.782Z,7.40
2023-03-03T02:31:54.798Z,7.78
2023-03-03T02:32:07.872Z,8.25
2023-03-03T02:32:20.812Z,7.70
2023-03-03T02:32:33.820Z,7.53
2023-03-03T02:32:46.849Z,7.53
2023-03-03T02:32:59.792Z,7.25
2023-03-03T02:33:12.652Z,7.30
2023-03-03T02:33:26.019Z,7.57
2023-03-03T02:33:42.861Z,7.43
2023-03-03T02:33:55.803Z,6.97
2023-03-03T02:34:08.750Z,7.18
2023-03-03T02:34:21.663Z,7.70
2023-03-03T02:34:50.940Z,7.70
2023-03-03T02:35:27.721Z,7.60
2023-03-03T02:35:41.350Z,7.22
2023-03-03T02:35:54.343Z,7.30
2023-03-03T02:36:07.407Z,7.20
2023-03-03T02:36:22.652Z,7.05
2023-03-03T02:36:37.451Z,7.22
2023-03-03T02:36:50.425Z,7.50
2023-03-03T02:37:04.064Z,7.93
2023-03-03T02:37:17.030Z,7.80
2023-03-03T02:37:30.251Z,7.50
2023-03-03T02:37:43.175Z,7.40
2023-03-03T02:37:59.219Z,7.40
2023-03-03T02:38:17.888Z,7.30
2023-03-03T02:38:42.520Z,7.30
2023-03-03T02:39:18.276Z,7.60
2023-03-03T02:39:31.157Z,7.37
2023-03-03T02:39:44.279Z,7.25
2023-03-03T02:39:57.130Z,7.50
2023-03-03T02:40:10.757Z,7.47
2023-03-03T02:40:24.507Z,7.47
2023-03-03T02:40:39.046Z,7.43
2023-03-03T02:41:28.116Z,7.60
2023-03-03T02:42:02.526Z,7.45
2023-03-03T02:42:17.285Z,7.80
2023-03-03T02:42:30.218Z,7.47
2023-03-03T02:42:43.164Z,7.55
2023-03-03T02:42:56.076Z,7.22
2023-03-03T02:43:08.938Z,7.15
2023-03-03T02:43:22.689Z,7.15
2023-03-03T02:44:08.835Z,7.18
2023-03-03T02:44:23.279Z,7.20
2023-03-03T02:44:36.212Z,7.18
2023-03-03T02:44:49.114Z,7.32
2023-03-03T02:45:01.958Z,7.20
2023-03-03T02:45:14.884Z,6.95
2023-03-03T02:45:27.812Z,6.90
2023-03-03T02:45:44.658Z,7.28
2023-03-03T02:45:57.967Z,7.41
2023-03-03T02:46:10.870Z,7.43
2023-03-03T02:46:23.782Z,7.50
2023-03-03T02:46:38.924Z,7.53
2023-03-03T02:46:52.675Z,7.55
2023-03-03T02:47:05.606Z,7.40
2023-03-03T02:47:18.517Z,7.43
2023-03-03T02:47:31.446Z,7.30
2023-03-03T02:47:50.872Z,7.45
2023-03-03T02:48:03.921Z,7.45
2023-03-03T02:48:16.783Z,7.50
2023-03-03T02:48:29.678Z,7.37
2023-03-03T02:48:42.680Z,7.15
2023-03-03T02:48:55.620Z,7.10
2023-03-03T02:49:09.410Z,7.35
2023-03-03T02:49:23.820Z,7.32
2023-03-03T02:49:36.810Z,7.30
2023-03-03T02:49:49.720Z,7.28
2023-03-03T02:50:02.634Z,6.93
2023-03-03T02:50:15.610Z,7.18
2023-03-03T02:50:28.550Z,7.30
2023-03-03T02:50:41.488Z,7.20
2023-03-03T02:50:54.496Z,7.18
2023-03-03T02:51:07.410Z,7.72
2023-03-03T02:51:20.304Z,7.85
2023-03-03T02:51:33.217Z,7.45
2023-03-03T02:51:46.103Z,7.32
2023-03-03T02:51:59.338Z,7.30
2023-03-03T02:52:12.309Z,7.40
2023-03-03T02:52:28.246Z,7.57
2023-03-03T02:52:41.145Z,7.62
2023-03-03T02:52:54.012Z,7.60
2023-03-03T02:53:06.868Z,7.80
2023-03-03T02:53:19.821Z,7.72
2023-03-03T02:53:32.666Z,7.53
2023-03-03T02:53:45.685Z,7.50
2023-03-03T02:53:58.607Z,7.53
2023-03-03T02:54:12.653Z,7.47
2023-03-03T02:54:26.613Z,7.22
2023-03-03T02:54:39.648Z,7.30
2023-03-03T02:54:52.492Z,7.53
2023-03-03T02:55:05.869Z,7.50
2023-03-03T02:55:18.770Z,7.28
2023-03-03T02:55:31.647Z,7.18
2023-03-03T02:55:44.539Z,7.05
2023-03-03T02:55:57.395Z,7.10
2023-03-03T02:56:10.281Z,7.37
2023-03-03T02:56:23.197Z,7.30
2023-03-03T02:56:36.457Z,7.07
2023-03-03T02:56:49.461Z,7.43
2023-03-03T02:57:02.321Z,7.43
2023-03-03T02:57:15.229Z,7.20
2023-03-03T02:57:28.076Z,7.00
2023-03-03T02:57:40.994Z,7.07
2023-03-03T02:57:53.943Z,7.18
2023-03-03T02:58:06.845Z,7.32
2023-03-03T02:58:19.753Z,7.07
2023-03-03T02:58:32.720Z,7.18
2023-03-03T02:58:45.640Z,7.32
2023-03-03T02:58:58.624Z,7.40
2023-03-03T02:59:11.519Z,7.37
2023-03-03T02:59:24.460Z,7.10
2023-03-03T02:59:37.741Z,7.03
2023-03-03T02:59:50.610Z,7.20
2023-03-03T03:00:03.756Z,7.22
2023-03-03T03:00:16.781Z,7.55
2023-03-03T03:00:29.634Z,7.72
2023-03-03T03:00:42.522Z,7.25
2023-03-03T03:00:55.748Z,7.12
2023-03-03T03:01:08.779Z,7.53
2023-03-03T03:01:21.849Z,7.87
2023-03-03T03:01:37.246Z,7.53
2023-03-03T03:01:50.285Z,7.53
2023-03-03T03:02:03.223Z,7.57
2023-03-03T03:02:16.089Z,7.35
2023-03-03T03:02:28.955Z,7.22
2023-03-03T03:02:41.847Z,6.87
2023-03-03T03:02:54.771Z,6.60
2023-03-03T03:03:07.662Z,6.93
2023-03-03T03:03:20.810Z,7.10
2023-03-03T03:03:33.724Z,7.28
2023-03-03T03:03:46.677Z,7.07
2023-03-03T03:03:59.618Z,7.35
2023-03-03T03:04:14.454Z,7.22
2023-03-03T03:04:27.690Z,7.45
2023-03-03T03:04:40.626Z,7.45
2023-03-03T03:04:53.623Z,7.55
2023-03-03T03:05:06.668Z,8.07
2023-03-03T03:05:19.588Z,8.18
2023-03-03T03:05:32.452Z,7.85
2023-03-03T03:05:45.341Z,7.60
2023-03-03T03:05:58.253Z,7.65
2023-03-03T03:06:11.218Z,7.28
2023-03-03T03:06:24.068Z,7.32
2023-03-03T03:06:37.438Z,7.57
2023-03-03T03:06:50.441Z,7.53
2023-03-03T03:07:03.708Z,7.37
2023-03-03T03:07:16.576Z,7.07
2023-03-03T03:07:29.504Z,7.05
2023-03-03T03:07:42.691Z,7.40
2023-03-03T03:07:55.609Z,7.35
2023-03-03T03:08:08.447Z,7.20
2023-03-03T03:08:21.350Z,7.12
2023-03-03T03:08:34.212Z,7.10
2023-03-03T03:08:47.145Z,7.15
2023-03-03T03:09:00.664Z,7.12
2023-03-03T03:09:13.770Z,7.10
2023-03-03T03:09:28.277Z,7.65
2023-03-03T03:09:41.319Z,7.62
2023-03-03T03:09:55.065Z,7.18
2023-03-03T03:10:08.318Z,7.43
2023-03-03T03:10:21.231Z,7.32
2023-03-03T03:10:36.509Z,6.90
2023-03-03T03:10:49.480Z,7.20
2023-03-03T03:11:02.507Z,7.47
2023-03-03T03:11:15.501Z,7.70
2023-03-03T03:11:28.419Z,7.48
2023-03-03T03:11:41.634Z,7.25
2023-03-03T03:11:54.533Z,7.43
2023-03-03T03:12:07.747Z,7.55
2023-03-03T03:12:21.394Z,7.40
2023-03-03T03:12:34.359Z,7.30
2023-03-03T03:12:47.270Z,7.07
2023-03-03T03:13:00.166Z,6.95
2023-03-03T03:13:13.017Z,7.30
2023-03-03T03:13:26.007Z,7.25
2023-03-03T03:13:38.900Z,7.35
2023-03-03T03:13:52.135Z,7.28
2023-03-03T03:14:05.713Z,7.43
2023-03-03T03:14:18.590Z,7.65
2023-03-03T03:14:31.525Z,7.55
2023-03-03T03:14:44.432Z,7.37
2023-03-03T03:14:57.430Z,7.50
2023-03-03T03:15:10.944Z,7.22
2023-03-03T03:15:23.820Z,6.95
2023-03-03T03:15:36.810Z,7.37
2023-03-03T03:15:49.658Z,7.65
2023-03-03T03:16:02.544Z,7.65
2023-03-03T03:16:15.438Z,7.18
2023-03-03T03:16:28.390Z,6.85
2023-03-03T03:16:41.459Z,7.20
2023-03-03T03:16:54.420Z,7.20
2023-03-03T03:17:07.376Z,7.05
2023-03-03T03:17:20.225Z,7.12
2023-03-03T03:17:33.143Z,7.28
2023-03-03T03:17:46.073Z,7.28
2023-03-03T03:17:58.921Z,7.18
2023-03-03T03:18:11.869Z,7.72
2023-03-03T03:18:24.864Z,7.70
2023-03-03T03:18:37.740Z,7.75
2023-03-03T03:18:50.886Z,7.43
2023-03-03T03:19:04.556Z,7.37
2023-03-03T03:19:17.478Z,7.15
2023-03-03T03:19:30.482Z,6.95
2023-03-03T03:19:43.319Z,7.00
2023-03-03T03:19:56.194Z,7.07
2023-03-03T03:20:09.568Z,7.22
2023-03-03T03:20:22.488Z,7.25
2023-03-03T03:20:40.164Z,7.35
2023-03-03T03:20:53.059Z,7.50
2023-03-03T03:21:07.703Z,7.37
2023-03-03T03:21:20.675Z,7.22
2023-03-03T03:21:33.692Z,7.10
2023-03-03T03:21:46.575Z,7.10
2023-03-03T03:21:59.672Z,7.10
2023-03-03T03:22:12.550Z,7.18
2023-03-03T03:22:25.483Z,7.22
2023-03-03T03:22:38.444Z,7.15
2023-03-03T03:22:51.324Z,7.03
2023-03-03T03:23:04.241Z,7.22
2023-03-03T03:23:17.236Z,7.35
2023-03-03T03:23:30.075Z,7.30
2023-03-03T03:23:43.009Z,6.97
2023-03-03T03:23:55.920Z,7.15
2023-03-03T03:24:08.979Z,7.37
2023-03-03T03:24:21.848Z,7.18
2023-03-03T03:24:34.710Z,7.30
2023-03-03T03:24:47.569Z,7.78
2023-03-03T03:25:00.463Z,7.97
2023-03-03T03:25:13.399Z,7.93
2023-03-03T03:25:26.291Z,7.62
2023-03-03T03:25:45.297Z,7.57
2023-03-03T03:25:58.178Z,7.70
2023-03-03T03:26:11.095Z,7.30
2023-03-03T03:26:24.412Z,7.18
2023-03-03T03:26:37.233Z,7.50
2023-03-03T03:26:50.096Z,7.65
2023-03-03T03:27:03.091Z,7.30
2023-03-03T03:27:16.082Z,7.45
2023-03-03T03:27:28.958Z,7.62
2023-03-03T03:27:41.831Z,7.50
2023-03-03T03:27:54.727Z,7.72
2023-03-03T03:28:07.783Z,7.47
2023-03-03T03:28:20.614Z,7.45
2023-03-03T03:28:33.623Z,7.18
2023-03-03T03:28:46.973Z,7.24
2023-03-03T03:29:00.042Z,7.30
2023-03-03T03:29:13.031Z,7.22
2023-03-03T03:29:25.952Z,7.35
2023-03-03T03:29:38.902Z,7.32
2023-03-03T03:29:51.843Z,7.32
2023-03-03T03:30:05.159Z,7.50
2023-03-03T03:30:20.768Z,7.40
2023-03-03T03:30:33.634Z,7.28
2023-03-03T03:30:46.600Z,7.43
2023-03-03T03:30:59.613Z,7.20
2023-03-03T03:31:12.859Z,7.00
2023-03-03T03:31:25.810Z,7.25
2023-03-03T03:31:39.327Z,7.25
2023-03-03T03:31:52.318Z,7.12
2023-03-03T03:32:05.590Z,7.00
2023-03-03T03:32:18.619Z,7.15
2023-03-03T03:32:31.548Z,7.37
2023-03-03T03:32:44.544Z,7.45
2023-03-03T03:32:57.497Z,7.50
2023-03-03T03:33:10.443Z,7.30
2023-03-03T03:33:23.328Z,7.10
2023-03-03T03:33:36.317Z,7.35
2023-03-03T03:33:49.355Z,7.32
2023-03-03T03:34:02.230Z,7.43
2023-03-03T03:34:15.145Z,7.37
2023-03-03T03:34:28.067Z,7.57
2023-03-03T03:34:40.981Z,7.53
2023-03-03T03:34:53.852Z,7.40
2023-03-03T03:35:07.226Z,7.18
2023-03-03T03:35:20.105Z,6.90
2023-03-03T03:35:33.922Z,6.87
2023-03-03T03:35:47.718Z,7.00
2023-03-03T03:36:00.690Z,7.18
2023-03-03T03:36:13.542Z,6.93
2023-03-03T03:36:28.363Z,6.78
2023-03-03T03:36:41.622Z,7.35
2023-03-03T03:36:54.503Z,7.93
2023-03-03T03:37:09.990Z,7.72
2023-03-03T03:37:23.026Z,7.43
2023-03-03T03:37:35.879Z,7.37
2023-03-03T03:37:48.768Z,7.65
2023-03-03T03:38:04.578Z,7.43
2023-03-03T03:38:17.627Z,7.65
2023-03-03T03:38:31.671Z,7.95
2023-03-03T03:38:44.602Z,8.07
2023-03-03T03:38:57.491Z,8.05
2023-03-03T03:39:12.814Z,7.75
2023-03-03T03:39:25.701Z,7.28
2023-03-03T03:39:38.603Z,6.93
2023-03-03T03:39:51.622Z,7.05
2023-03-03T03:40:04.989Z,7.18
2023-03-03T03:40:17.854Z,7.57
2023-03-03T03:40:30.724Z,7.50
2023-03-03T03:40:43.746Z,7.50
2023-03-03T03:40:56.688Z,7.80
2023-03-03T03:41:09.661Z,8.13
2023-03-03T03:41:22.560Z,7.85
2023-03-03T03:41:35.472Z,7.50
2023-03-03T03:41:48.366Z,7.60
2023-03-03T03:42:01.231Z,7.70
2023-03-03T03:42:14.190Z,7.30
2023-03-03T03:42:27.159Z,7.43
2023-03-03T03:42:41.380Z,7.68
2023-03-03T03:42:54.543Z,7.80
2023-03-03T03:43:07.420Z,7.68
2023-03-03T03:43:20.383Z,7.57
2023-03-03T03:43:33.355Z,7.43
2023-03-03T03:43:46.672Z,7.70
2023-03-03T03:43:59.568Z,7.82
2023-03-03T03:44:12.410Z,8.18
2023-03-03T03:44:25.398Z,8.05
2023-03-03T03:44:38.346Z,7.60
2023-03-03T03:44:51.704Z,7.22
2023-03-03T03:45:05.162Z,7.10
2023-03-03T03:45:18.212Z,7.18
2023-03-03T03:45:31.183Z,7.47
2023-03-03T03:45:44.197Z,7.70
2023-03-03T03:45:57.276Z,8.05
2023-03-03T03:46:10.258Z,7.85
2023-03-03T03:46:23.225Z,7.37
2023-03-03T03:46:36.150Z,7.50
2023-03-03T03:46:49.043Z,7.85
2023-03-03T03:47:01.991Z,7.57
2023-03-03T03:47:14.852Z,7.47
2023-03-03T03:47:27.791Z,7.28
2023-03-03T03:47:41.878Z,7.40
2023-03-03T03:47:54.772Z,7.35
2023-03-03T03:48:07.759Z,7.32
2023-03-03T03:48:21.041Z,7.80
2023-03-03T03:48:33.995Z,7.87
2023-03-03T03:48:46.880Z,7.45
2023-03-03T03:48:59.786Z,7.70
2023-03-03T03:49:12.681Z,7.82
2023-03-03T03:49:25.588Z,7.50
2023-03-03T03:49:40.839Z,7.12
2023-03-03T03:49:53.704Z,7.40
2023-03-03T03:50:06.996Z,7.65
2023-03-03T03:50:19.869Z,7.78
2023-03-03T03:50:32.750Z,7.30
2023-03-03T03:50:47.143Z,7.28
2023-03-03T03:51:00.094Z,7.22
2023-03-03T03:51:12.978Z,7.18
2023-03-03T03:51:25.899Z,7.25
2023-03-03T03:51:41.526Z,7.50
2023-03-03T03:51:54.421Z,7.62
2023-03-03T03:52:07.302Z,7.20
2023-03-03T03:52:20.258Z,7.05
2023-03-03T03:52:33.142Z,7.18
2023-03-03T03:52:46.092Z,7.43
2023-03-03T03:52:59.006Z,7.20
2023-03-03T03:53:11.923Z,7.45
2023-03-03T03:53:24.796Z,7.43
2023-03-03T03:53:37.644Z,7.07
2023-03-03T03:53:50.498Z,6.97
2023-03-03T03:54:03.426Z,7.12
2023-03-03T03:54:18.884Z,7.45
2023-03-03T03:54:31.754Z,7.35
2023-03-03T03:54:44.669Z,7.12
2023-03-03T03:54:57.671Z,6.80
2023-03-03T03:55:10.943Z,6.90
2023-03-03T03:55:23.818Z,6.93
2023-03-03T03:55:36.668Z,7.20
2023-03-03T03:55:49.652Z,7.22
2023-03-03T03:56:02.589Z,7.12
2023-03-03T03:56:16.102Z,7.00
2023-03-03T03:56:29.265Z,7.15
2023-03-03T03:56:42.201Z,7.18
2023-03-03T03:56:55.215Z,6.97
2023-03-03T03:57:08.449Z,6.95
2023-03-03T03:57:21.380Z,6.93
2023-03-03T03:57:34.515Z,7.22
2023-03-03T03:57:47.395Z,7.70
2023-03-03T03:58:00.455Z,7.50
2023-03-03T03:58:14.701Z,7.18
2023-03-03T03:58:27.807Z,7.03
2023-03-03T03:58:42.025Z,6.80
2023-03-03T03:58:54.925Z,6.97
2023-03-03T03:59:08.232Z,7.37
2023-03-03T03:59:21.306Z,7.40
2023-03-03T03:59:34.223Z,7.22
2023-03-03T03:59:47.118Z,7.05
2023-03-03T04:00:00.237Z,6.90
2023-03-03T04:00:13.536Z,7.22
2023-03-03T04:00:26.550Z,7.20
2023-03-03T04:00:42.062Z,7.07
2023-03-03T04:00:54.979Z,7.22
2023-03-03T04:01:08.078Z,7.22
2023-03-03T04:01:21.023Z,7.93
2023-03-03T04:01:34.053Z,7.65
2023-03-03T04:01:48.259Z,7.43
2023-03-03T04:02:01.125Z,7.50
2023-03-03T04:02:14.165Z,7.30
2023-03-03T04:02:27.200Z,7.47
2023-03-03T04:02:40.387Z,7.65
2023-03-03T04:02:53.447Z,7.78
2023-03-03T04:03:06.466Z,7.53
2023-03-03T04:03:19.561Z,7.45
2023-03-03T04:03:32.569Z,7.50
2023-03-03T04:03:45.460Z,7.50
2023-03-03T04:03:58.390Z,7.72
2023-03-03T04:04:11.344Z,7.95
2023-03-03T04:04:24.615Z,7.87
2023-03-03T04:04:37.477Z,8.07
2023-03-03T04:04:50.343Z,7.65
2023-03-03T04:05:03.653Z,7.40
2023-03-03T04:05:16.770Z,7.72
2023-03-03T04:05:29.693Z,7.78
2023-03-03T04:05:42.961Z,7.50
2023-03-03T04:05:55.829Z,7.32
2023-03-03T04:06:08.761Z,7.12
2023-03-03T04:06:21.614Z,7.37
2023-03-03T04:06:34.597Z,7.80
2023-03-03T04:06:47.640Z,7.82
2023-03-03T04:07:00.486Z,7.70
2023-03-03T04:07:13.415Z,7.57
2023-03-03T04:07:26.253Z,7.54
2023-03-03T04:07:39.088Z,7.53
2023-03-03T04:07:52.006Z,7.70
2023-03-03T04:08:05.102Z,7.53
2023-03-03T04:08:18.051Z,7.55
2023-03-03T04:08:30.966Z,7.82
2023-03-03T04:08:43.882Z,7.62
2023-03-03T04:08:56.785Z,7.55
2023-03-03T04:09:10.047Z,7.55
2023-03-03T04:09:22.970Z,7.72
2023-03-03T04:09:35.966Z,7.50
2023-03-03T04:09:48.952Z,7.32
2023-03-03T04:10:01.802Z,7.20
2023-03-03T04:10:14.672Z,7.28
2023-03-03T04:10:27.593Z,7.75
2023-03-03T04:10:40.541Z,7.75
2023-03-03T04:10:53.504Z,7.45
2023-03-03T04:11:06.372Z,7.43
2023-03-03T04:11:49.404Z,7.72
2023-03-03T04:12:02.354Z,7.10
2023-03-03T04:12:15.213Z,7.12
2023-03-03T04:12:28.046Z,7.45
2023-03-03T04:12:43.682Z,7.95
2023-03-03T04:12:56.586Z,7.68
2023-03-03T04:13:09.472Z,7.37
2023-03-03T04:13:23.387Z,7.45
2023-03-03T04:13:36.294Z,7.53
2023-03-03T04:13:49.246Z,7.82
2023-03-03T04:14:02.183Z,7.68
2023-03-03T04:14:15.171Z,7.25
2023-03-03T04:14:28.078Z,7.12
2023-03-03T04:14:40.966Z,6.93
2023-03-03T04:14:53.896Z,7.07
2023-03-03T04:15:08.348Z,7.43
2023-03-03T04:15:51.848Z,7.30
2023-03-03T04:16:05.119Z,7.55
2023-03-03T04:16:18.033Z,7.93
2023-03-03T04:16:30.965Z,7.72
2023-03-03T04:16:43.976Z,7.50
2023-03-03T04:16:56.867Z,7.62
2023-03-03T04:17:16.104Z,7.72
2023-03-03T04:17:28.966Z,7.60
2023-03-03T04:17:41.918Z,7.22
2023-03-03T04:17:54.760Z,7.35
2023-03-03T04:18:07.617Z,7.60
2023-03-03T04:18:20.494Z,7.50
2023-03-03T04:18:33.383Z,7.25
2023-03-03T04:18:46.768Z,7.32
2023-03-03T04:18:59.986Z,7.15
2023-03-03T04:19:12.894Z,7.10
2023-03-03T04:19:25.783Z,7.20
2023-03-03T04:19:38.694Z,7.25
2023-03-03T04:19:53.635Z,7.32
2023-03-03T04:20:06.989Z,7.40
2023-03-03T04:20:20.116Z,7.57
2023-03-03T04:20:33.161Z,7.47
2023-03-03T04:20:46.056Z,7.25
2023-03-03T04:20:59.519Z,7.50
2023-03-03T04:21:13.640Z,7.37
2023-03-03T04:21:27.640Z,7.37
2023-03-03T04:21:40.542Z,7.25
2023-03-03T04:21:53.488Z,7.10
2023-03-03T04:22:07.040Z,7.35
2023-03-03T04:22:20.160Z,7.55
2023-03-03T04:22:34.033Z,7.25
2023-03-03T04:22:46.976Z,7.22
2023-03-03T04:22:59.884Z,7.28
2023-03-03T04:23:12.995Z,7.20
2023-03-03T04:23:25.868Z,7.40
2023-03-03T04:23:38.731Z,7.30
2023-03-03T04:23:53.393Z,7.12
2023-03-03T04:24:06.620Z,7.15
2023-03-03T04:24:22.678Z,7.20
2023-03-03T04:24:36.027Z,7.40
2023-03-03T04:24:48.952Z,7.40
2023-03-03T04:25:05.366Z,7.40
2023-03-03T04:25:18.555Z,7.43
2023-03-03T04:25:31.416Z,7.60
2023-03-03T04:25:46.010Z,7.43
2023-03-03T04:25:58.867Z,7.35
2023-03-03T04:26:11.717Z,7.35
2023-03-03T04:26:25.077Z,7.47